Weather at Hohhot Baita International Airport

Public forecast

Using degrees Celsius for public forecast. Weather courtesy of forecast.io.

Current aviation weather report (METAR) for Hohhot Baita International Airport

2024/05/26 15:00 (retrieved 1 hour ago)

ZBHH 261500Z 35002MPS 280V030 CAVOK 14/M01 Q1014 NOSIG

Aviation forecast (TAF) for Hohhot Baita International Airport

2024/05/26 12:03 (retrieved 4 hours ago)

TAF TAF ZBHH 260904Z 2612/2712 03004MPS CAVOK TX27/2707Z TN10/2622Z